Time;durP1;ratioP1;P1;durP2;ratioP2;P2;SDS_P1;SDS_P2;PMS_P1;PMS_P2;Temp;Humidity;BMP_temperature;BMP_pressure;BME280_temperature;BME280_humidity;BME280_pressure;Samples;Min_cycle;Max_cycle;Signal;HPM_P1;HPM_P2
2024/03/04 00:00:32;;;;;;;1.73;0.90;;;2.80;99.90;;;;;;4953882;28;20054;-85
2024/03/04 00:03:01;;;;;;;0.90;0.70;;;2.70;99.90;;;;;;4953568;28;20045;-85
2024/03/04 00:05:29;;;;;;;1.15;0.90;;;2.70;99.90;;;;;;4974326;28;20866;-85
2024/03/04 00:07:56;;;;;;;1.10;0.80;;;2.60;99.90;;;;;;4973366;28;20046;-85
2024/03/04 00:10:24;;;;;;;1.00;0.63;;;2.60;99.90;;;;;;4989417;28;20136;-85
2024/03/04 00:12:55;;;;;;;0.57;0.57;;;2.50;99.90;;;;;;4972771;28;20626;-86
2024/03/04 00:15:25;;;;;;;0.93;0.60;;;2.60;99.90;;;;;;4970033;28;20054;-85
2024/03/04 00:17:51;;;;;;;0.70;0.70;;;2.50;99.90;;;;;;4963381;28;20597;-87
2024/03/04 00:20:22;;;;;;;1.10;0.70;;;2.50;99.90;;;;;;4971556;28;20066;-84
2024/03/04 00:22:49;;;;;;;1.33;0.88;;;2.50;1.00;;;;;;4988618;28;20608;-85
2024/03/04 00:25:18;;;;;;;0.82;0.60;;;2.50;1.00;;;;;;4970372;28;20057;-85
2024/03/04 00:27:47;;;;;;;0.88;0.63;;;2.50;1.00;;;;;;4951333;28;20047;-85
2024/03/04 00:30:16;;;;;;;1.02;0.60;;;2.50;1.00;;;;;;4952714;28;20054;-84
2024/03/04 00:32:47;;;;;;;0.80;0.80;;;2.50;1.00;;;;;;4952020;28;20065;-85
2024/03/04 00:35:15;;;;;;;1.33;0.70;;;2.50;1.00;;;;;;4954148;28;20130;-84
2024/03/04 00:37:46;;;;;;;0.85;0.70;;;2.40;1.00;;;;;;4964499;28;20058;-85
2024/03/04 00:40:13;;;;;;;1.00;0.60;;;2.40;1.00;;;;;;4953662;28;20061;-85
2024/03/04 00:42:40;;;;;;;1.52;0.70;;;2.40;1.00;;;;;;4953835;28;20062;-85
2024/03/04 00:45:08;;;;;;;1.10;0.63;;;2.40;1.00;;;;;;4954696;28;20054;-85
2024/03/04 00:47:37;;;;;;;0.50;0.50;;;2.30;1.00;;;;;;4960266;28;20076;-85
2024/03/04 00:50:04;;;;;;;0.77;0.65;;;2.30;1.00;;;;;;4973204;28;20075;-85
2024/03/04 00:52:31;;;;;;;1.05;0.80;;;2.30;1.00;;;;;;4972313;28;20050;-85
2024/03/04 00:55:00;;;;;;;0.90;0.80;;;2.30;1.00;;;;;;4972806;28;20149;-85
2024/03/04 00:57:27;;;;;;;1.25;0.85;;;2.30;1.00;;;;;;4971890;28;20077;-85
2024/03/04 00:59:55;;;;;;;0.98;0.88;;;2.20;1.00;;;;;;4973631;28;20065;-85
2024/03/04 01:02:23;;;;;;;0.98;0.70;;;2.20;1.00;;;;;;4973137;28;20058;-85
2024/03/04 01:04:50;;;;;;;1.42;0.70;;;2.20;1.00;;;;;;4972633;28;20058;-85
2024/03/04 01:07:17;;;;;;;1.92;0.85;;;2.20;1.00;;;;;;4972765;28;20057;-84
2024/03/04 01:09:44;;;;;;;1.25;0.70;;;2.20;1.00;;;;;;4973239;28;20075;-85
2024/03/04 01:12:12;;;;;;;1.33;1.08;;;2.10;1.00;;;;;;4971799;28;20058;-85
2024/03/04 01:14:41;;;;;;;0.57;0.55;;;2.10;1.00;;;;;;4973610;28;20119;-85
2024/03/04 01:17:12;;;;;;;0.95;0.60;;;2.10;1.00;;;;;;4967777;28;20151;-84
2024/03/04 01:19:46;;;;;;;1.00;0.80;;;2.10;1.00;;;;;;4939241;28;20480;-85
2024/03/04 01:22:23;;;;;;;0.85;0.80;;;2.00;1.00;;;;;;4939762;28;20073;-85
2024/03/04 01:24:51;;;;;;;1.10;0.70;;;2.00;1.00;;;;;;4938863;28;20065;-84
2024/03/04 01:27:19;;;;;;;1.17;0.70;;;2.00;1.00;;;;;;4942357;28;20051;-84
2024/03/04 01:29:49;;;;;;;0.70;0.63;;;1.90;1.00;;;;;;4941897;28;20061;-85
2024/03/04 01:32:22;;;;;;;1.08;0.68;;;1.90;1.00;;;;;;4940807;28;20061;-85
2024/03/04 01:34:49;;;;;;;1.02;0.60;;;1.80;1.00;;;;;;4941726;28;20904;-85
2024/03/04 01:37:22;;;;;;;1.00;0.90;;;1.70;1.00;;;;;;4955462;28;20112;-85
2024/03/04 01:39:49;;;;;;;0.70;0.70;;;1.70;1.00;;;;;;4976024;28;20054;-85
2024/03/04 01:42:21;;;;;;;1.58;0.85;;;1.70;99.90;;;;;;4976111;28;20132;-85
2024/03/04 01:44:48;;;;;;;0.55;0.55;;;1.70;99.90;;;;;;4992600;28;20057;-85
2024/03/04 01:47:20;;;;;;;1.08;0.85;;;1.80;99.90;;;;;;4963022;28;20065;-86
2024/03/04 01:49:48;;;;;;;0.88;0.70;;;1.70;99.90;;;;;;4957356;28;20177;-85
2024/03/04 01:52:15;;;;;;;0.80;0.60;;;1.70;65.90;;;;;;4956459;28;20058;-84
2024/03/04 01:54:48;;;;;;;0.65;0.63;;;1.70;99.90;;;;;;4955998;28;20154;-85
2024/03/04 01:57:17;;;;;;;1.20;0.73;;;1.70;99.90;;;;;;4960786;28;20132;-85
2024/03/04 01:59:46;;;;;;;0.90;0.70;;;1.60;99.90;;;;;;4975596;28;20065;-84
2024/03/04 02:02:16;;;;;;;0.90;0.73;;;1.60;99.90;;;;;;4975038;28;20053;-85
2024/03/04 02:04:51;;;;;;;0.88;0.75;;;1.60;99.90;;;;;;4975720;28;20112;-86
2024/03/04 02:07:20;;;;;;;0.82;0.65;;;1.60;99.90;;;;;;4965647;28;20579;-85
2024/03/04 02:09:49;;;;;;;0.98;0.65;;;1.60;99.90;;;;;;4975230;28;20137;-86
2024/03/04 02:12:24;;;;;;;1.00;0.65;;;1.60;99.90;;;;;;4974395;28;20070;-85
2024/03/04 02:14:59;;;;;;;0.80;0.60;;;1.60;99.90;;;;;;4975212;28;20046;-85
2024/03/04 02:17:27;;;;;;;0.60;0.60;;;1.50;99.90;;;;;;4975013;28;20447;-85
2024/03/04 02:19:58;;;;;;;0.50;0.50;;;1.50;99.90;;;;;;4975094;28;20120;-85
2024/03/04 02:22:27;;;;;;;0.95;0.70;;;1.50;99.90;;;;;;4975302;28;20060;-85
2024/03/04 02:24:54;;;;;;;0.68;0.60;;;1.50;99.90;;;;;;4975432;28;20104;-86
2024/03/04 02:27:34;;;;;;;0.65;0.65;;;1.50;99.90;;;;;;4959514;28;20132;-85
2024/03/04 02:30:04;;;;;;;0.85;0.70;;;1.50;99.90;;;;;;4956301;28;20058;-84
2024/03/04 02:32:35;;;;;;;0.88;0.70;;;1.50;99.90;;;;;;4958612;28;20780;-86
2024/03/04 02:35:04;;;;;;;0.77;0.73;;;1.50;99.90;;;;;;4976288;28;20384;-84
2024/03/04 02:37:35;;;;;;;0.75;0.75;;;1.50;99.90;;;;;;4966365;28;20101;-85
2024/03/04 02:40:07;;;;;;;0.75;0.70;;;1.40;99.90;;;;;;4956756;28;20066;-84
2024/03/04 02:42:36;;;;;;;0.55;0.55;;;1.40;99.90;;;;;;4955505;28;20104;-85
2024/03/04 02:45:05;;;;;;;0.80;0.60;;;1.30;99.90;;;;;;4956626;28;20047;-85
2024/03/04 02:47:37;;;;;;;1.35;0.80;;;1.40;99.90;;;;;;4956097;28;20144;-85
2024/03/04 02:50:07;;;;;;;0.88;0.57;;;1.30;99.90;;;;;;4956619;28;20050;-86
2024/03/04 02:52:35;;;;;;;0.57;0.57;;;1.30;99.90;;;;;;4956129;28;20058;-85
2024/03/04 02:55:04;;;;;;;0.60;0.50;;;1.30;99.90;;;;;;4957062;28;20049;-86
2024/03/04 02:57:31;;;;;;;0.73;0.65;;;1.30;99.90;;;;;;4960265;28;20137;-85
2024/03/04 02:59:58;;;;;;;1.55;0.95;;;1.30;99.90;;;;;;4975725;28;20534;-86
2024/03/04 03:02:31;;;;;;;0.52;0.52;;;1.30;99.90;;;;;;4975707;28;20527;-85
2024/03/04 03:04:59;;;;;;;0.45;0.45;;;1.30;99.90;;;;;;4990921;28;20120;-86
2024/03/04 03:07:26;;;;;;;0.60;0.52;;;1.30;99.90;;;;;;4990851;28;20136;-85
2024/03/04 03:10:01;;;;;;;0.77;0.77;;;1.20;99.90;;;;;;4975651;28;20132;-85
2024/03/04 03:12:28;;;;;;;0.80;0.60;;;1.20;99.90;;;;;;4974748;28;20061;-84
2024/03/04 03:14:56;;;;;;;0.70;0.60;;;1.20;99.90;;;;;;4974877;28;20050;-86
2024/03/04 03:17:31;;;;;;;0.43;0.38;;;1.20;99.90;;;;;;4974496;28;20049;-85
2024/03/04 03:20:00;;;;;;;0.60;0.60;;;1.20;99.90;;;;;;4975302;28;20053;-85
2024/03/04 03:22:27;;;;;;;0.75;0.65;;;1.20;99.90;;;;;;4974786;28;20058;-85
2024/03/04 03:25:04;;;;;;;0.70;0.70;;;1.30;99.90;;;;;;4974837;28;20053;-85
2024/03/04 03:27:31;;;;;;;1.02;0.60;;;1.20;99.90;;;;;;4974199;28;20046;-85
2024/03/04 03:29:58;;;;;;;0.50;0.50;;;1.20;99.90;;;;;;4975061;28;20057;-85
2024/03/04 03:32:26;;;;;;;0.60;0.50;;;1.20;99.90;;;;;;4971625;28;20057;-86
2024/03/04 03:34:54;;;;;;;0.77;0.55;;;1.20;99.90;;;;;;4971453;28;20047;-86
2024/03/04 03:37:47;;;;;;;0.50;0.50;;;1.20;99.90;;;;;;4978929;28;20074;-86
2024/03/04 03:40:18;;;;;;;0.52;0.45;;;1.20;99.90;;;;;;4952823;28;20089;-85
2024/03/04 03:42:45;;;;;;;0.50;0.50;;;1.20;1.00;;;;;;4951716;28;20058;-85
2024/03/04 03:45:12;;;;;;;1.27;0.80;;;1.20;1.00;;;;;;4952020;28;20059;-85
2024/03/04 03:47:39;;;;;;;0.50;0.50;;;1.20;1.00;;;;;;4956850;28;20051;-84
2024/03/04 03:50:07;;;;;;;0.57;0.57;;;1.20;99.90;;;;;;4952338;28;20057;-85
2024/03/04 03:52:40;;;;;;;0.82;0.60;;;1.20;99.90;;;;;;4952148;28;20054;-86
2024/03/04 03:55:07;;;;;;;0.55;0.50;;;1.10;99.90;;;;;;4968960;28;20141;-85
2024/03/04 03:57:40;;;;;;;0.52;0.40;;;1.20;99.90;;;;;;4964875;28;20497;-84
2024/03/04 04:00:23;;;;;;;0.75;0.60;;;1.20;99.90;;;;;;4955168;28;20050;-85
2024/03/04 04:02:50;;;;;;;0.57;0.57;;;1.10;99.90;;;;;;4952407;28;20108;-86
2024/03/04 04:05:18;;;;;;;0.40;0.40;;;1.10;99.90;;;;;;4969659;28;20214;-86
2024/03/04 04:07:45;;;;;;;0.68;0.50;;;1.10;1.00;;;;;;4971516;28;20596;-86
2024/03/04 04:10:14;;;;;;;0.40;0.40;;;1.20;1.00;;;;;;4971610;28;20050;-85
2024/03/04 04:12:42;;;;;;;0.63;0.50;;;1.10;99.90;;;;;;4971099;28;20050;-86
2024/03/04 04:15:09;;;;;;;1.80;0.70;;;1.10;99.90;;;;;;4971571;28;20090;-85
2024/03/04 04:17:37;;;;;;;0.40;0.40;;;1.10;99.90;;;;;;4970538;28;20481;-85
2024/03/04 04:20:07;;;;;;;0.55;0.50;;;1.10;99.90;;;;;;4971173;28;20053;-85
2024/03/04 04:22:35;;;;;;;0.93;0.60;;;1.10;99.90;;;;;;4970958;28;20504;-85
2024/03/04 04:25:03;;;;;;;0.57;0.50;;;1.00;99.90;;;;;;4971286;28;20419;-85
2024/03/04 04:27:33;;;;;;;0.50;0.50;;;1.10;1.00;;;;;;4970078;28;20054;-86
2024/03/04 04:30:00;;;;;;;0.40;0.40;;;1.10;1.00;;;;;;4970906;28;20092;-85
2024/03/04 04:32:27;;;;;;;0.88;0.50;;;1.10;1.00;;;;;;4958210;28;20062;-84
2024/03/04 04:34:56;;;;;;;0.50;0.45;;;1.10;1.00;;;;;;4951224;28;20066;-85
2024/03/04 04:37:29;;;;;;;0.40;0.40;;;1.20;61.70;;;;;;4951272;28;20042;-86
2024/03/04 04:39:57;;;;;;;0.40;0.40;;;1.20;1.00;;;;;;4951481;28;20485;-85
2024/03/04 04:42:24;;;;;;;0.60;0.47;;;1.20;1.00;;;;;;4965560;28;20047;-85
2024/03/04 04:44:52;;;;;;;0.82;0.47;;;1.30;23.40;;;;;;4949075;28;20062;-85
2024/03/04 04:47:22;;;;;;;0.40;0.40;;;1.30;1.00;;;;;;4946338;28;20458;-85
2024/03/04 04:49:49;;;;;;;0.55;0.55;;;1.30;1.00;;;;;;4916100;29;20047;-86
2024/03/04 04:52:17;;;;;;;0.50;0.50;;;1.30;1.00;;;;;;4930209;29;20051;-85
2024/03/04 04:54:46;;;;;;;0.63;0.50;;;1.40;1.00;;;;;;4943795;28;20468;-85
2024/03/04 04:57:19;;;;;;;0.50;0.50;;;1.50;1.00;;;;;;4948779;29;20073;-86
2024/03/04 04:59:48;;;;;;;0.50;0.50;;;1.60;36.60;;;;;;4934882;29;20051;-86
2024/03/04 05:02:16;;;;;;;0.57;0.50;;;1.60;38.10;;;;;;4937695;29;20093;-85
2024/03/04 05:04:54;;;;;;;0.40;0.40;;;1.70;11.40;;;;;;4948798;28;20059;-85
2024/03/04 05:07:25;;;;;;;0.45;0.45;;;1.80;57.20;;;;;;4950526;29;20047;-85
2024/03/04 05:10:01;;;;;;;0.38;0.38;;;1.90;31.00;;;;;;4937869;29;20047;-85
2024/03/04 05:12:29;;;;;;;0.55;0.40;;;2.00;90.60;;;;;;4937083;29;20441;-86
2024/03/04 05:15:07;;;;;;;0.40;0.40;;;2.10;99.90;;;;;;4937594;29;20569;-86
2024/03/04 05:17:37;;;;;;;0.43;0.43;;;2.10;99.90;;;;;;4943562;28;20066;-85
2024/03/04 05:20:09;;;;;;;0.73;0.52;;;2.20;92.10;;;;;;4940499;28;20187;-85
2024/03/04 05:22:48;;;;;;;0.47;0.40;;;2.20;57.20;;;;;;4940959;28;20093;-85
2024/03/04 05:25:15;;;;;;;0.60;0.60;;;2.30;99.90;;;;;;4937657;29;20051;-84
2024/03/04 05:27:42;;;;;;;1.35;0.47;;;2.40;62.90;;;;;;4934152;29;20063;-86
2024/03/04 05:30:10;;;;;;;0.40;0.40;;;2.40;90.30;;;;;;4921410;29;20051;-86
2024/03/04 05:32:39;;;;;;;0.50;0.50;;;2.50;99.90;;;;;;4921050;29;20047;-85
2024/03/04 05:35:07;;;;;;;0.47;0.47;;;2.60;79.50;;;;;;4921867;29;20401;-86
2024/03/04 05:37:34;;;;;;;0.50;0.50;;;2.60;40.10;;;;;;4936473;29;20043;-85
2024/03/04 05:40:10;;;;;;;1.13;0.60;;;2.70;67.20;;;;;;4936583;29;20417;-85
2024/03/04 05:42:41;;;;;;;0.40;0.40;;;2.70;1.00;;;;;;4936112;29;20118;-86
2024/03/04 05:45:14;;;;;;;0.77;0.50;;;2.60;1.00;;;;;;4950909;28;20488;-85
2024/03/04 05:47:41;;;;;;;0.45;0.40;;;2.70;1.00;;;;;;4955809;28;20450;-87
2024/03/04 05:50:14;;;;;;;0.57;0.47;;;2.70;1.00;;;;;;4954256;28;20054;-88
2024/03/04 05:52:45;;;;;;;1.45;0.40;;;2.60;1.00;;;;;;4954975;28;20493;-86
2024/03/04 05:55:17;;;;;;;0.38;0.38;;;2.60;1.00;;;;;;4953383;28;20070;-83
2024/03/04 05:57:46;;;;;;;0.63;0.30;;;2.60;1.00;;;;;;4951066;28;20062;-83
2024/03/04 06:00:14;;;;;;;0.43;0.30;;;2.60;1.00;;;;;;4950238;28;20066;-86
2024/03/04 06:02:48;;;;;;;0.52;0.43;;;2.60;1.00;;;;;;4937427;28;20051;-86
2024/03/04 06:05:15;;;;;;;0.40;0.40;;;2.60;49.40;;;;;;4952563;28;20066;-86
2024/03/04 06:07:47;;;;;;;1.02;0.50;;;2.60;99.90;;;;;;4954031;28;20468;-86
2024/03/04 06:10:19;;;;;;;1.02;0.52;;;2.70;99.90;;;;;;4974435;28;20101;-88
2024/03/04 06:12:48;;;;;;;0.80;0.80;;;2.60;99.90;;;;;;4952763;28;20081;-87
2024/03/04 06:15:25;;;;;;;0.43;0.43;;;2.60;99.90;;;;;;4953618;28;20063;-85
2024/03/04 06:17:55;;;;;;;0.43;0.30;;;2.60;99.90;;;;;;4952956;28;20054;-90
2024/03/04 06:20:27;;;;;;;0.50;0.50;;;2.60;99.90;;;;;;4953439;28;20604;-92
2024/03/04 06:23:09;;;;;;;0.30;0.30;;;2.60;99.90;;;;;;4954881;28;20052;-87
2024/03/04 06:25:38;;;;;;;0.45;0.45;;;2.50;99.90;;;;;;4940081;29;20054;-89
2024/03/04 06:28:05;;;;;;;0.40;0.40;;;2.50;99.90;;;;;;4920495;29;20142;-89
2024/03/04 06:30:35;;;;;;;0.52;0.52;;;2.50;99.90;;;;;;4935549;28;20398;-88
2024/03/04 06:33:02;;;;;;;1.52;1.00;;;2.50;99.90;;;;;;4955026;28;20035;-88
2024/03/04 06:35:29;;;;;;;1.42;0.90;;;2.50;1.00;;;;;;4953632;28;20853;-85
2024/03/04 06:37:56;;;;;;;1.08;0.80;;;2.40;24.40;;;;;;4943836;28;20051;-89
2024/03/04 06:40:24;;;;;;;1.95;1.10;;;2.50;48.40;;;;;;4948203;28;20448;-84
2024/03/04 06:42:51;;;;;;;1.15;0.90;;;2.50;99.90;;;;;;4950931;28;20058;-85
2024/03/04 06:45:18;;;;;;;1.75;1.00;;;2.50;99.90;;;;;;4953574;28;20059;-83
2024/03/04 06:47:46;;;;;;;1.17;0.55;;;2.60;99.90;;;;;;4952916;28;20061;-84
2024/03/04 06:50:13;;;;;;;0.90;0.70;;;2.60;1.00;;;;;;4943131;28;20078;-82
2024/03/04 06:52:40;;;;;;;0.60;0.50;;;2.60;1.00;;;;;;4947603;28;20569;-82
2024/03/04 06:55:07;;;;;;;0.98;0.70;;;2.60;99.90;;;;;;4949513;28;20065;-83
2024/03/04 06:57:34;;;;;;;1.13;0.70;;;2.60;99.90;;;;;;4962275;28;20050;-83
2024/03/04 07:00:04;;;;;;;0.82;0.60;;;2.60;99.90;;;;;;4937467;28;20062;-83
2024/03/04 07:02:31;;;;;;;1.10;0.82;;;2.60;73.80;;;;;;4944861;28;20047;-83
2024/03/04 07:04:58;;;;;;;0.77;0.60;;;2.60;87.10;;;;;;4938973;29;20896;-83
2024/03/04 07:07:26;;;;;;;0.70;0.52;;;2.60;76.10;;;;;;4958383;28;20358;-83
2024/03/04 07:09:54;;;;;;;0.52;0.50;;;2.60;35.80;;;;;;4924561;28;20063;-84
2024/03/04 07:12:24;;;;;;;0.80;0.60;;;2.60;1.00;;;;;;4928876;29;20117;-84
2024/03/04 07:14:51;;;;;;;1.00;0.60;;;2.60;99.90;;;;;;4942498;28;20513;-82
2024/03/04 07:17:19;;;;;;;2.08;0.70;;;2.70;99.90;;;;;;4949578;28;20052;-86
2024/03/04 07:19:46;;;;;;;0.52;0.50;;;2.80;75.60;;;;;;4950982;28;20058;-86
2024/03/04 07:22:18;;;;;;;0.70;0.50;;;2.90;99.90;;;;;;4951165;28;20073;-88
2024/03/04 07:24:49;;;;;;;0.40;0.40;;;2.90;99.90;;;;;;4948902;28;20763;-88
2024/03/04 07:27:19;;;;;;;0.52;0.50;;;3.00;99.90;;;;;;4938260;28;20055;-89
2024/03/04 07:29:48;;;;;;;0.77;0.60;;;3.10;25.90;;;;;;4937248;29;20524;-87
2024/03/04 07:32:30;;;;;;;0.70;0.60;;;3.10;99.90;;;;;;4942333;28;20191;-88
2024/03/04 07:35:01;;;;;;;0.63;0.60;;;3.20;99.90;;;;;;4943760;28;20043;-85
2024/03/04 07:37:40;;;;;;;0.55;0.55;;;3.30;99.90;;;;;;4949086;28;20055;-87
2024/03/04 07:40:10;;;;;;;0.60;0.60;;;3.30;99.90;;;;;;4952122;28;20183;-86
2024/03/04 07:42:39;;;;;;;0.50;0.50;;;3.40;99.90;;;;;;4947284;28;20043;-87
2024/03/04 07:45:09;;;;;;;0.50;0.50;;;3.40;99.90;;;;;;4949453;28;20059;-88
2024/03/04 07:47:38;;;;;;;0.93;0.63;;;3.50;1.00;;;;;;4964577;28;20059;-87
2024/03/04 07:50:07;;;;;;;0.57;0.50;;;3.50;1.00;;;;;;4945735;28;20046;-87
2024/03/04 07:52:34;;;;;;;0.50;0.50;;;3.60;1.00;;;;;;4949587;29;20106;-85
2024/03/04 07:55:19;;;;;;;0.63;0.60;;;3.70;45.40;;;;;;4933339;29;20146;-86
2024/03/04 07:57:50;;;;;;;0.65;0.63;;;3.70;90.30;;;;;;4940592;28;20768;-86
2024/03/04 08:00:17;;;;;;;0.65;0.63;;;3.80;99.90;;;;;;4951042;28;20117;-82
2024/03/04 08:02:46;;;;;;;0.40;0.40;;;4.00;99.90;;;;;;4928835;28;20513;-84
2024/03/04 08:05:13;;;;;;;0.40;0.40;;;4.10;99.90;;;;;;4953765;28;20047;-83
2024/03/04 08:07:42;;;;;;;0.50;0.40;;;4.20;99.90;;;;;;4955817;28;20059;-83
2024/03/04 08:10:11;;;;;;;0.40;0.40;;;4.20;99.90;;;;;;4945813;28;20202;-83
2024/03/04 08:12:39;;;;;;;0.40;0.40;;;4.30;99.90;;;;;;4978811;28;20508;-83
2024/03/04 08:15:06;;;;;;;0.80;0.80;;;4.40;99.90;;;;;;4950846;28;20070;-82
2024/03/04 08:17:34;;;;;;;0.85;0.68;;;4.50;99.90;;;;;;4944490;29;20051;-85
2024/03/04 08:20:09;;;;;;;0.50;0.50;;;4.60;99.90;;;;;;4945038;28;20066;-87
2024/03/04 08:22:49;;;;;;;0.40;0.40;;;4.60;99.90;;;;;;4951796;28;20051;-85
2024/03/04 08:25:16;;;;;;;0.70;0.70;;;4.80;1.00;;;;;;4950118;28;20055;-83
2024/03/04 08:27:43;;;;;;;0.60;0.60;;;4.90;1.00;;;;;;4949095;28;20047;-84
2024/03/04 08:30:13;;;;;;;0.50;0.50;;;5.00;1.00;;;;;;4950163;28;20121;-85
2024/03/04 08:32:45;;;;;;;0.40;0.40;;;5.10;1.00;;;;;;4950393;28;20059;-85
2024/03/04 08:35:15;;;;;;;0.30;0.30;;;5.10;99.90;;;;;;4950908;28;20161;-84
2024/03/04 08:37:42;;;;;;;0.50;0.40;;;5.20;99.90;;;;;;4952251;28;20058;-85
2024/03/04 08:40:12;;;;;;;0.30;0.30;;;5.30;99.90;;;;;;4953531;28;20054;-84
2024/03/04 08:42:41;;;;;;;0.40;0.40;;;5.40;99.90;;;;;;4954549;28;20047;-84
2024/03/04 08:45:10;;;;;;;0.88;0.50;;;5.50;99.90;;;;;;4955917;28;20050;-85
2024/03/04 08:47:42;;;;;;;0.30;0.30;;;5.70;99.90;;;;;;4948784;29;20063;-86
2024/03/04 08:50:09;;;;;;;0.43;0.43;;;5.80;99.90;;;;;;4949255;28;20057;-84
2024/03/04 08:52:37;;;;;;;0.38;0.38;;;5.90;99.90;;;;;;4978303;28;20524;-84
2024/03/04 08:55:04;;;;;;;0.40;0.40;;;6.00;99.90;;;;;;4946135;28;20742;-84
2024/03/04 08:57:33;;;;;;;1.00;0.40;;;6.10;97.20;;;;;;4936674;28;20561;-83
2024/03/04 09:00:00;;;;;;;0.55;0.40;;;6.20;99.90;;;;;;4937695;28;20051;-85
2024/03/04 09:02:28;;;;;;;0.38;0.30;;;6.40;99.90;;;;;;4936185;28;20062;-82
2024/03/04 09:04:55;;;;;;;0.38;0.38;;;6.50;17.70;;;;;;4952131;28;20058;-84
2024/03/04 09:07:27;;;;;;;0.30;0.30;;;6.60;83.80;;;;;;4950156;28;20054;-82
2024/03/04 09:09:54;;;;;;;0.40;0.40;;;6.80;99.90;;;;;;4949163;28;20656;-82
2024/03/04 09:12:21;;;;;;;0.30;0.30;;;7.00;99.90;;;;;;4977182;28;20043;-82
2024/03/04 09:14:51;;;;;;;0.30;0.30;;;7.20;99.90;;;;;;4937193;28;20059;-87
2024/03/04 09:17:20;;;;;;;0.30;0.30;;;7.30;99.90;;;;;;4971046;28;20058;-88
2024/03/04 09:19:47;;;;;;;0.20;0.20;;;7.50;1.00;;;;;;4974045;28;20078;-81
2024/03/04 09:22:14;;;;;;;0.95;0.38;;;7.50;99.90;;;;;;4964765;28;20050;-84
2024/03/04 09:24:43;;;;;;;0.47;0.40;;;7.60;8.00;;;;;;4942880;28;20069;-87
2024/03/04 09:27:13;;;;;;;0.70;0.38;;;7.70;99.90;;;;;;4946550;28;20373;-84
2024/03/04 09:29:40;;;;;;;0.80;0.40;;;7.80;99.90;;;;;;4949936;28;20273;-88
2024/03/04 09:32:08;;;;;;;1.10;0.60;;;7.90;99.90;;;;;;4982972;28;20057;-90
2024/03/04 09:34:36;;;;;;;0.30;0.30;;;8.00;99.90;;;;;;4938576;28;20540;-89
2024/03/04 09:37:03;;;;;;;0.30;0.30;;;8.00;99.90;;;;;;4951347;28;20812;-90
2024/03/04 09:39:30;;;;;;;0.70;0.50;;;8.10;99.90;;;;;;4953317;28;20150;-86
2024/03/04 09:41:57;;;;;;;0.55;0.38;;;8.20;99.90;;;;;;4951228;28;20047;-85
2024/03/04 09:44:27;;;;;;;0.55;0.30;;;8.30;99.90;;;;;;4948236;28;20464;-87
2024/03/04 09:46:55;;;;;;;0.47;0.30;;;8.50;99.90;;;;;;4949159;28;20074;-86
2024/03/04 09:49:28;;;;;;;0.43;0.40;;;8.60;99.90;;;;;;4941661;28;20145;-88
2024/03/04 09:51:59;;;;;;;0.50;0.32;;;8.70;99.90;;;;;;4934887;29;20314;-87
2024/03/04 09:54:36;;;;;;;0.40;0.40;;;8.80;99.90;;;;;;4952314;28;20047;-89
2024/03/04 09:57:04;;;;;;;0.98;0.30;;;9.00;99.90;;;;;;4945305;28;20497;-84
2024/03/04 09:59:32;;;;;;;0.43;0.38;;;9.10;99.90;;;;;;4945062;28;20055;-88
2024/03/04 10:02:01;;;;;;;0.52;0.30;;;9.10;99.90;;;;;;4944863;28;20042;-85
2024/03/04 10:04:30;;;;;;;0.15;0.15;;;9.20;99.90;;;;;;4948640;28;20142;-86
2024/03/04 10:07:00;;;;;;;0.22;0.22;;;9.30;99.90;;;;;;4920790;28;20071;-87
2024/03/04 10:09:29;;;;;;;0.30;0.25;;;9.30;99.60;;;;;;4954312;28;20639;-86
2024/03/04 10:11:58;;;;;;;0.30;0.30;;;9.40;94.90;;;;;;4982940;28;20161;-86
2024/03/04 10:14:26;;;;;;;0.28;0.28;;;9.50;93.20;;;;;;4935959;28;20063;-86
2024/03/04 10:16:55;;;;;;;0.20;0.20;;;9.60;83.30;;;;;;4948905;28;20051;-85
2024/03/04 10:19:22;;;;;;;0.30;0.30;;;9.70;76.20;;;;;;4932867;29;20058;-84
2024/03/04 10:21:49;;;;;;;0.30;0.30;;;9.80;57.10;;;;;;4929357;29;20054;-84
2024/03/04 10:24:17;;;;;;;0.55;0.40;;;9.90;48.70;;;;;;4930397;29;20078;-85
2024/03/04 10:26:47;;;;;;;0.50;0.50;;;10.00;40.60;;;;;;4929167;29;20070;-85
2024/03/04 10:29:15;;;;;;;0.40;0.40;;;10.00;12.10;;;;;;4944357;29;20051;-84
2024/03/04 10:31:52;;;;;;;0.30;0.30;;;10.10;1.00;;;;;;4932961;29;20059;-83
2024/03/04 10:34:20;;;;;;;0.60;0.40;;;10.30;8.30;;;;;;4946369;29;20047;-84
2024/03/04 10:36:56;;;;;;;0.40;0.40;;;10.40;4.20;;;;;;4932910;29;20114;-86
2024/03/04 10:39:29;;;;;;;0.40;0.40;;;10.50;3.90;;;;;;4954218;28;20059;-85
2024/03/04 10:41:56;;;;;;;1.55;0.57;;;10.50;1.00;;;;;;4952489;28;20050;-83
2024/03/04 10:55:01;;;;;;;0.77;0.52;;;10.60;1.00;;;;;;5060806;28;20391;-72
2024/03/04 11:00:25;;;;;;;0.60;0.55;;;10.60;1.00;;;;;;5526447;22;21512;-84
2024/03/04 11:03:00;;;;;;;0.85;0.52;;;10.90;1.00;;;;;;4981110;28;20042;-86
2024/03/04 11:05:27;;;;;;;;;;;11.00;1.00;;;;;;4999645;28;20148;-85
2024/03/04 11:08:15;;;;;;;1.65;0.80;;;11.20;1.00;;;;;;5003134;28;19922;-83
2024/03/04 11:10:50;;;;;;;0.50;0.50;;;11.30;1.00;;;;;;5000806;28;20706;-84
2024/03/04 11:13:33;;;;;;;0.85;0.70;;;11.30;1.00;;;;;;5017523;28;20053;-81
2024/03/04 11:16:16;;;;;;;0.68;0.47;;;11.30;1.00;;;;;;4999598;28;20049;-82
2024/03/04 11:19:05;;;;;;;0.85;0.68;;;11.20;1.00;;;;;;5017149;28;20088;-83
2024/03/04 11:21:32;;;;;;;0.75;0.55;;;11.10;1.00;;;;;;5001347;28;20667;-83
2024/03/04 11:24:02;;;;;;;0.55;0.55;;;11.20;1.00;;;;;;5002051;28;20519;-84
2024/03/04 11:26:30;;;;;;;0.30;0.30;;;11.30;1.00;;;;;;5000519;28;20092;-83
2024/03/04 11:28:57;;;;;;;0.30;0.30;;;11.30;1.00;;;;;;5001783;28;20758;-85
2024/03/04 11:31:24;;;;;;;0.90;0.55;;;11.40;1.00;;;;;;4995632;28;20446;-92
2024/03/04 11:34:12;;;;;;;0.90;0.73;;;11.70;1.00;;;;;;5004246;28;20417;-93
2024/03/04 11:36:39;;;;;;;1.17;0.75;;;12.00;1.00;;;;;;5011963;28;20143;-92
2024/03/04 11:39:16;;;;;;;0.60;0.60;;;12.10;1.00;;;;;;5010435;28;20050;-93
2024/03/04 11:41:48;;;;;;;1.40;0.80;;;12.20;1.00;;;;;;5007370;28;20046;-93
2024/03/04 11:44:28;;;;;;;0.50;0.50;;;12.20;1.00;;;;;;5023758;28;20076;-90
2024/03/04 11:47:16;;;;;;;0.75;0.60;;;12.30;1.00;;;;;;5008188;28;20060;-88
2024/03/04 11:49:56;;;;;;;0.50;0.40;;;12.50;1.00;;;;;;5008100;28;20121;-92
2024/03/04 11:52:25;;;;;;;0.60;0.45;;;12.70;1.00;;;;;;5008506;28;20057;-90
2024/03/04 11:55:01;;;;;;;0.47;0.47;;;12.90;1.00;;;;;;4992618;28;20482;-89
2024/03/04 11:57:40;;;;;;;0.93;0.63;;;13.10;1.00;;;;;;5009467;28;20076;-89
2024/03/04 12:00:13;;;;;;;1.08;0.55;;;13.30;1.00;;;;;;5006522;28;20112;-85
2024/03/04 12:03:35;;;;;;;0.55;0.55;;;13.50;1.00;;;;;;5009341;28;20050;-87
2024/03/04 12:06:06;;;;;;;1.38;0.90;;;13.70;1.00;;;;;;5012561;28;20425;-85
2024/03/04 12:08:33;;;;;;;1.00;0.68;;;13.70;1.00;;;;;;4976419;28;20133;-86
2024/03/04 12:11:22;;;;;;;0.88;0.65;;;13.60;1.00;;;;;;4982525;28;20141;-88
2024/03/04 12:13:50;;;;;;;0.40;0.40;;;13.60;1.00;;;;;;4994162;28;20065;-88
2024/03/04 12:16:18;;;;;;;1.05;0.70;;;13.60;1.00;;;;;;5006940;28;20096;-86
2024/03/04 12:18:49;;;;;;;1.23;0.52;;;13.60;1.00;;;;;;4988585;28;20134;-86
2024/03/04 12:21:19;;;;;;;0.57;0.55;;;13.60;1.00;;;;;;4975461;28;20149;-86
2024/03/04 12:23:48;;;;;;;1.17;0.50;;;13.70;1.00;;;;;;5007578;28;21048;-85
2024/03/04 12:26:16;;;;;;;0.43;0.40;;;13.90;1.00;;;;;;4990648;28;20054;-88
2024/03/04 12:28:44;;;;;;;0.57;0.57;;;14.00;1.00;;;;;;4974761;28;20042;-85
2024/03/04 12:31:13;;;;;;;0.50;0.50;;;13.90;1.00;;;;;;5006729;28;20077;-86
2024/03/04 12:33:41;;;;;;;0.57;0.50;;;13.80;1.00;;;;;;4990711;28;20057;-86
2024/03/04 12:36:09;;;;;;;1.38;0.55;;;13.80;1.00;;;;;;4974145;28;20049;-86
2024/03/04 12:38:36;;;;;;;1.77;0.68;;;14.00;1.00;;;;;;4990220;28;20058;-86
2024/03/04 12:41:04;;;;;;;0.88;0.50;;;14.00;1.00;;;;;;4957955;28;20053;-85
2024/03/04 12:43:32;;;;;;;0.90;0.47;;;13.90;1.00;;;;;;4988726;28;20064;-85
2024/03/04 12:46:01;;;;;;;0.85;0.70;;;13.80;1.00;;;;;;4987979;28;20061;-85
2024/03/04 12:48:32;;;;;;;1.05;0.80;;;13.70;1.00;;;;;;4989179;28;20046;-85
2024/03/04 12:50:59;;;;;;;1.70;1.00;;;13.60;1.00;;;;;;4987665;28;20146;-84
2024/03/04 12:53:28;;;;;;;1.05;0.80;;;13.50;1.00;;;;;;4972361;28;20082;-85
2024/03/04 12:55:57;;;;;;;1.15;0.77;;;13.50;1.00;;;;;;4971149;28;20880;-85
2024/03/04 12:58:24;;;;;;;0.52;0.50;;;13.60;1.00;;;;;;4988688;28;20057;-84
2024/03/04 13:00:52;;;;;;;1.17;0.50;;;13.60;1.00;;;;;;5001378;28;20119;-92
2024/03/04 13:03:28;;;;;;;0.88;0.73;;;13.50;1.00;;;;;;5019407;28;20060;-91
2024/03/04 13:06:00;;;;;;;1.13;0.52;;;13.50;1.00;;;;;;4993927;28;20128;-94
2024/03/04 13:08:27;;;;;;;0.70;0.60;;;13.60;1.00;;;;;;4981286;28;20106;-93
2024/03/04 13:10:54;;;;;;;0.63;0.47;;;13.70;1.00;;;;;;5010735;28;20054;-94
2024/03/04 13:13:27;;;;;;;0.52;0.50;;;13.70;1.00;;;;;;5000775;28;20061;-93
2024/03/04 13:15:55;;;;;;;1.23;0.90;;;13.70;1.00;;;;;;5000768;28;20138;-73
2024/03/04 13:18:22;;;;;;;1.63;0.80;;;13.60;1.00;;;;;;5004116;28;20050;-76
2024/03/04 13:20:49;;;;;;;0.50;0.50;;;13.60;1.00;;;;;;5016435;28;20100;-75
2024/03/04 13:23:16;;;;;;;0.35;0.35;;;13.50;1.00;;;;;;4988249;28;20137;-75
2024/03/04 13:25:43;;;;;;;0.82;0.63;;;13.60;1.00;;;;;;5002849;28;20049;-76
2024/03/04 13:28:10;;;;;;;1.63;0.70;;;13.70;1.00;;;;;;5003659;28;20058;-77